Capitol Logistics 1901




LPMA
Madeira Airport
Funchal, PT
EDDK
Cologne Bonn Airport
Cologne, DE

Activity Log

Date Flight Route Aircraft Duration
No Flights Yet

Route Details

Aircraft Information
Group: European Fleet
Types: A30F,A31F,B738
Route Data
Demand: D
Distance: 1517nm
Duration: 4h 00m
Recm'd Route: DEGU1E DEGUN NASAS ORSOS DEMOS LOTEE EKDAP NTS UN741 ANG UL976 OBATO UM163 TSU UN858 VALEK UM163 DIK T856 DEPOK DEPO1S
Origin Wx: LPMA 270630Z 35008KT 310V010 9999 SCT016 18/12 Q1017
Dest. Wx: EDDK 270620Z AUTO 26013KT 3400 -RADZ BR BKN008 13/12 Q1020 RERA TEMPO RADZ
Notes:

Financial History
Total Freight: 0lbs
Average Load: 0lbs/flt
Fuel Used: 0lbs
Avg. Fuel Used: 0lbs/flt
Fuel Expense: $0
Avg. Fuel Expense: $0
Avg. Fuel Cost: $0/lbs
Total Gross Income: $0
Pilot Pay: $0
Total Expenses: $0
Total Revenue: $0
Average Revenue: $0